sensor_id;sensor_type;location;lat;lon;timestamp;pressure;altitude;pressure_sealevel;temperature;humidity
29359;BME280;16347;53.232;6.556;2023-04-07T00:01:26;101460.84;;;11.06;65.76
29359;BME280;16347;53.232;6.556;2023-04-07T00:03:55;101460.66;;;11.17;65.82
29359;BME280;16347;53.232;6.556;2023-04-07T00:06:25;101460.94;;;11.23;65.20
29359;BME280;16347;53.232;6.556;2023-04-07T00:08:53;101453.63;;;11.24;64.98
29359;BME280;16347;53.232;6.556;2023-04-07T00:11:20;101453.06;;;11.20;65.24
29359;BME280;16347;53.232;6.556;2023-04-07T00:13:50;101449.31;;;11.21;65.49
29359;BME280;16347;53.232;6.556;2023-04-07T00:16:18;101449.75;;;11.26;65.36
29359;BME280;16347;53.232;6.556;2023-04-07T00:18:46;101442.88;;;11.22;65.01
29359;BME280;16347;53.232;6.556;2023-04-07T00:21:15;101444.91;;;11.20;65.51
29359;BME280;16347;53.232;6.556;2023-04-07T00:23:42;101451.06;;;11.13;65.69
29359;BME280;16347;53.232;6.556;2023-04-07T00:26:11;101449.22;;;11.13;65.44
29359;BME280;16347;53.232;6.556;2023-04-07T00:28:41;101449.47;;;11.20;65.38
29359;BME280;16347;53.232;6.556;2023-04-07T00:31:11;101454.78;;;11.12;65.60
29359;BME280;16347;53.232;6.556;2023-04-07T00:33:39;101453.66;;;11.14;65.64
29359;BME280;16347;53.232;6.556;2023-04-07T00:36:07;101452.19;;;11.20;65.86
29359;BME280;16347;53.232;6.556;2023-04-07T00:38:35;101444.91;;;11.20;65.50
29359;BME280;16347;53.232;6.556;2023-04-07T00:41:03;101454.63;;;11.23;65.87
29359;BME280;16347;53.232;6.556;2023-04-07T00:43:31;101450.19;;;11.22;65.77
29359;BME280;16347;53.232;6.556;2023-04-07T00:45:59;101454.94;;;11.20;65.73
29359;BME280;16347;53.232;6.556;2023-04-07T00:48:28;101457.78;;;11.18;65.95
29359;BME280;16347;53.232;6.556;2023-04-07T00:50:57;101454.19;;;11.27;65.77
29359;BME280;16347;53.232;6.556;2023-04-07T00:53:25;101454.03;;;11.29;65.60
29359;BME280;16347;53.232;6.556;2023-04-07T00:55:53;101453.47;;;11.25;65.68
29359;BME280;16347;53.232;6.556;2023-04-07T00:58:21;101448.59;;;11.29;66.07
29359;BME280;16347;53.232;6.556;2023-04-07T01:00:54;101454.59;;;11.32;65.95
29359;BME280;16347;53.232;6.556;2023-04-07T01:03:32;101457.28;;;11.42;65.51
29359;BME280;16347;53.232;6.556;2023-04-07T01:06:05;101453.69;;;11.42;64.88
29359;BME280;16347;53.232;6.556;2023-04-07T01:08:40;101456.63;;;11.30;65.21
29359;BME280;16347;53.232;6.556;2023-04-07T01:11:15;101460.06;;;11.23;65.46
29359;BME280;16347;53.232;6.556;2023-04-07T01:13:49;101451.03;;;11.22;65.99
29359;BME280;16347;53.232;6.556;2023-04-07T01:16:43;101454.31;;;11.26;65.96
29359;BME280;16347;53.232;6.556;2023-04-07T01:19:32;101452.13;;;11.39;66.07
29359;BME280;16347;53.232;6.556;2023-04-07T01:22:02;101442.44;;;11.27;65.95
29359;BME280;16347;53.232;6.556;2023-04-07T01:24:41;101448.78;;;11.18;66.20
29359;BME280;16347;53.232;6.556;2023-04-07T01:27:20;101453.50;;;11.16;66.32
29359;BME280;16347;53.232;6.556;2023-04-07T01:29:51;101450.34;;;11.20;66.44
29359;BME280;16347;53.232;6.556;2023-04-07T01:32:20;101454.63;;;11.23;66.80
29359;BME280;16347;53.232;6.556;2023-04-07T01:34:51;101451.16;;;11.30;66.96
29359;BME280;16347;53.232;6.556;2023-04-07T01:37:20;101461.19;;;11.30;66.90
29359;BME280;16347;53.232;6.556;2023-04-07T01:39:49;101461.91;;;11.32;66.64
29359;BME280;16347;53.232;6.556;2023-04-07T01:42:18;101462.63;;;11.34;67.20
29359;BME280;16347;53.232;6.556;2023-04-07T01:44:47;101455.03;;;11.38;67.12
29359;BME280;16347;53.232;6.556;2023-04-07T01:47:17;101452.59;;;11.35;66.82
29359;BME280;16347;53.232;6.556;2023-04-07T01:49:46;101463.44;;;11.44;66.98
29359;BME280;16347;53.232;6.556;2023-04-07T01:52:15;101458.31;;;11.41;66.97
29359;BME280;16347;53.232;6.556;2023-04-07T01:54:44;101459.84;;;11.44;67.02
29359;BME280;16347;53.232;6.556;2023-04-07T01:57:12;101457.56;;;11.39;66.24
29359;BME280;16347;53.232;6.556;2023-04-07T01:59:40;101455.59;;;11.31;66.90
29359;BME280;16347;53.232;6.556;2023-04-07T02:02:09;101454.31;;;11.26;67.01
29359;BME280;16347;53.232;6.556;2023-04-07T02:04:47;101448.03;;;11.25;67.35
29359;BME280;16347;53.232;6.556;2023-04-07T02:07:19;101453.03;;;11.30;67.72
29359;BME280;16347;53.232;6.556;2023-04-07T02:09:50;101467.53;;;11.21;67.99
29359;BME280;16347;53.232;6.556;2023-04-07T02:12:22;101451.63;;;11.16;68.44
29359;BME280;16347;53.232;6.556;2023-04-07T02:15:02;101462.22;;;11.19;67.75
29359;BME280;16347;53.232;6.556;2023-04-07T02:17:32;101457.06;;;11.26;68.02
29359;BME280;16347;53.232;6.556;2023-04-07T02:20:05;101456.66;;;11.21;67.91
29359;BME280;16347;53.232;6.556;2023-04-07T02:22:36;101453.94;;;11.21;67.83
29359;BME280;16347;53.232;6.556;2023-04-07T02:25:22;101460.19;;;11.31;68.44
29359;BME280;16347;53.232;6.556;2023-04-07T02:27:53;101457.22;;;11.24;68.10
29359;BME280;16347;53.232;6.556;2023-04-07T02:30:22;101458.91;;;11.25;68.03
29359;BME280;16347;53.232;6.556;2023-04-07T02:32:50;101454.31;;;11.26;67.77
29359;BME280;16347;53.232;6.556;2023-04-07T02:35:21;101463.50;;;11.25;67.97
29359;BME280;16347;53.232;6.556;2023-04-07T02:37:49;101465.94;;;11.18;68.51
29359;BME280;16347;53.232;6.556;2023-04-07T02:40:17;101469.13;;;11.14;68.08
29359;BME280;16347;53.232;6.556;2023-04-07T02:42:45;101460.66;;;11.17;68.29
29359;BME280;16347;53.232;6.556;2023-04-07T02:45:13;101464.38;;;11.16;68.56
29359;BME280;16347;53.232;6.556;2023-04-07T02:47:41;101466.97;;;11.17;68.61
29359;BME280;16347;53.232;6.556;2023-04-07T02:50:10;101471.38;;;11.18;68.53
29359;BME280;16347;53.232;6.556;2023-04-07T02:52:39;101467.84;;;11.18;68.38
29359;BME280;16347;53.232;6.556;2023-04-07T02:55:10;101467.25;;;11.24;68.17
29359;BME280;16347;53.232;6.556;2023-04-07T02:57:39;101465.66;;;11.21;68.47
29359;BME280;16347;53.232;6.556;2023-04-07T03:00:27;101463.22;;;11.18;68.80
29359;BME280;16347;53.232;6.556;2023-04-07T03:03:00;101471.81;;;11.23;68.97
29359;BME280;16347;53.232;6.556;2023-04-07T03:05:32;101470.38;;;11.29;68.61
29359;BME280;16347;53.232;6.556;2023-04-07T03:08:03;101470.91;;;11.32;68.15
29359;BME280;16347;53.232;6.556;2023-04-07T03:10:31;101473.38;;;11.26;68.01
29359;BME280;16347;53.232;6.556;2023-04-07T03:12:59;101474.38;;;11.25;67.94
29359;BME280;16347;53.232;6.556;2023-04-07T03:15:28;101472.22;;;11.28;68.09
29359;BME280;16347;53.232;6.556;2023-04-07T03:17:56;101473.97;;;11.20;68.08
29359;BME280;16347;53.232;6.556;2023-04-07T03:20:24;101473.38;;;11.26;68.42
29359;BME280;16347;53.232;6.556;2023-04-07T03:22:52;101471.09;;;11.31;68.21
29359;BME280;16347;53.232;6.556;2023-04-07T03:25:27;101475.59;;;11.50;68.21
29359;BME280;16347;53.232;6.556;2023-04-07T03:27:55;101481.41;;;11.27;68.16
29359;BME280;16347;53.232;6.556;2023-04-07T03:30:26;101475.81;;;11.29;68.21
29359;BME280;16347;53.232;6.556;2023-04-07T03:32:54;101471.09;;;11.31;68.34
29359;BME280;16347;53.232;6.556;2023-04-07T03:35:23;101470.78;;;11.34;68.22
29359;BME280;16347;53.232;6.556;2023-04-07T03:37:51;101474.50;;;11.33;68.70
29359;BME280;16347;53.232;6.556;2023-04-07T03:40:19;101475.38;;;11.33;68.12
29359;BME280;16347;53.232;6.556;2023-04-07T03:42:48;101478.78;;;11.36;68.17
29359;BME280;16347;53.232;6.556;2023-04-07T03:45:17;101485.09;;;11.36;67.99
29359;BME280;16347;53.232;6.556;2023-04-07T03:47:50;101484.66;;;11.41;67.94
29359;BME280;16347;53.232;6.556;2023-04-07T03:50:20;101483.81;;;11.40;68.04
29359;BME280;16347;53.232;6.556;2023-04-07T03:53:11;101476.19;;;11.44;67.77
29359;BME280;16347;53.232;6.556;2023-04-07T03:55:41;101482.63;;;11.43;67.57
29359;BME280;16347;53.232;6.556;2023-04-07T03:58:20;101485.06;;;11.46;68.09
29359;BME280;16347;53.232;6.556;2023-04-07T04:00:48;101492.53;;;11.44;67.25
29359;BME280;16347;53.232;6.556;2023-04-07T04:03:16;101492.97;;;11.39;67.46
29359;BME280;16347;53.232;6.556;2023-04-07T04:05:55;101494.00;;;11.38;67.38
29359;BME280;16347;53.232;6.556;2023-04-07T04:08:27;101497.97;;;11.44;67.76
29359;BME280;16347;53.232;6.556;2023-04-07T04:10:55;101500.44;;;11.37;67.77
29359;BME280;16347;53.232;6.556;2023-04-07T04:13:30;101497.84;;;11.36;67.97
29359;BME280;16347;53.232;6.556;2023-04-07T04:16:02;101506.59;;;11.39;67.51
29359;BME280;16347;53.232;6.556;2023-04-07T04:18:30;101502.59;;;11.33;67.27
29359;BME280;16347;53.232;6.556;2023-04-07T04:20:58;101503.75;;;11.31;66.96
29359;BME280;16347;53.232;6.556;2023-04-07T04:23:27;101514.47;;;11.32;67.15
29359;BME280;16347;53.232;6.556;2023-04-07T04:25:56;101513.31;;;11.35;66.94
29359;BME280;16347;53.232;6.556;2023-04-07T04:28:26;101516.78;;;11.37;67.08
29359;BME280;16347;53.232;6.556;2023-04-07T04:30:56;101507.47;;;11.30;66.93
29359;BME280;16347;53.232;6.556;2023-04-07T04:33:24;101508.19;;;11.32;66.94
29359;BME280;16347;53.232;6.556;2023-04-07T04:35:57;101516.91;;;11.36;66.65
29359;BME280;16347;53.232;6.556;2023-04-07T04:38:26;101516.34;;;11.32;66.52
29359;BME280;16347;53.232;6.556;2023-04-07T04:41:02;101520.94;;;11.22;66.38
29359;BME280;16347;53.232;6.556;2023-04-07T04:43:31;101524.69;;;11.21;66.84
29359;BME280;16347;53.232;6.556;2023-04-07T04:46:01;101521.13;;;11.20;66.81
29359;BME280;16347;53.232;6.556;2023-04-07T04:48:34;101529.41;;;11.19;66.68
29359;BME280;16347;53.232;6.556;2023-04-07T04:51:04;101530.56;;;11.16;66.96
29359;BME280;16347;53.232;6.556;2023-04-07T04:53:33;101526.25;;;11.23;66.79
29359;BME280;16347;53.232;6.556;2023-04-07T04:56:01;101532.31;;;11.17;66.56
29359;BME280;16347;53.232;6.556;2023-04-07T04:58:39;101536.00;;;11.16;66.62
29359;BME280;16347;53.232;6.556;2023-04-07T05:01:18;101532.44;;;11.06;66.68
29359;BME280;16347;53.232;6.556;2023-04-07T05:03:55;101534.00;;;11.09;66.56
29359;BME280;16347;53.232;6.556;2023-04-07T05:06:27;101538.47;;;11.10;66.79
29359;BME280;16347;53.232;6.556;2023-04-07T05:08:59;101543.91;;;11.10;67.01
29359;BME280;16347;53.232;6.556;2023-04-07T05:11:35;101539.44;;;11.18;66.86
29359;BME280;16347;53.232;6.556;2023-04-07T05:14:03;101534.75;;;11.11;67.03
29359;BME280;16347;53.232;6.556;2023-04-07T05:16:33;101539.31;;;11.10;66.74
29359;BME280;16347;53.232;6.556;2023-04-07T05:19:03;101544.59;;;11.12;66.99
29359;BME280;16347;53.232;6.556;2023-04-07T05:21:31;101552.63;;;11.13;66.96
29359;BME280;16347;53.232;6.556;2023-04-07T05:24:02;101561.66;;;11.14;66.97
29359;BME280;16347;53.232;6.556;2023-04-07T05:26:32;101561.66;;;11.14;66.82
29359;BME280;16347;53.232;6.556;2023-04-07T05:29:03;101568.25;;;11.21;67.01
29359;BME280;16347;53.232;6.556;2023-04-07T05:31:32;101559.94;;;11.13;67.17
29359;BME280;16347;53.232;6.556;2023-04-07T05:34:07;101566.38;;;11.21;66.93
29359;BME280;16347;53.232;6.556;2023-04-07T05:36:42;101571.69;;;11.23;67.09
29359;BME280;16347;53.232;6.556;2023-04-07T05:39:10;101574.09;;;11.26;66.99
29359;BME280;16347;53.232;6.556;2023-04-07T05:41:39;101576.25;;;11.32;66.99
29359;BME280;16347;53.232;6.556;2023-04-07T05:44:07;101583.41;;;11.33;66.21
29359;BME280;16347;53.232;6.556;2023-04-07T05:46:40;101581.69;;;11.32;66.50
29359;BME280;16347;53.232;6.556;2023-04-07T05:49:09;101584.84;;;11.37;66.29
29359;BME280;16347;53.232;6.556;2023-04-07T05:51:48;101597.72;;;11.35;66.00
29359;BME280;16347;53.232;6.556;2023-04-07T05:54:16;101590.44;;;11.36;66.17
29359;BME280;16347;53.232;6.556;2023-04-07T05:56:44;101590.44;;;11.36;66.26
29359;BME280;16347;53.232;6.556;2023-04-07T05:59:12;101589.44;;;11.27;66.16
29359;BME280;16347;53.232;6.556;2023-04-07T06:01:42;101593.59;;;11.21;66.19
29359;BME280;16347;53.232;6.556;2023-04-07T06:04:10;101600.75;;;11.22;66.01
29359;BME280;16347;53.232;6.556;2023-04-07T06:06:38;101599.31;;;11.18;65.87
29359;BME280;16347;53.232;6.556;2023-04-07T06:09:06;101601.91;;;11.20;66.15
29359;BME280;16347;53.232;6.556;2023-04-07T06:11:35;101607.50;;;11.18;66.02
29359;BME280;16347;53.232;6.556;2023-04-07T06:14:03;101608.81;;;11.14;66.01
29359;BME280;16347;53.232;6.556;2023-04-07T06:16:31;101613.97;;;11.17;66.50
29359;BME280;16347;53.232;6.556;2023-04-07T06:19:00;101610.78;;;11.22;65.96
29359;BME280;16347;53.232;6.556;2023-04-07T06:21:29;101620.38;;;11.26;66.08
29359;BME280;16347;53.232;6.556;2023-04-07T06:23:57;101613.66;;;11.30;66.00
29359;BME280;16347;53.232;6.556;2023-04-07T06:26:26;101620.66;;;11.32;65.74
29359;BME280;16347;53.232;6.556;2023-04-07T06:28:55;101614.22;;;11.33;65.84
29359;BME280;16347;53.232;6.556;2023-04-07T06:31:23;101623.25;;;11.34;65.72
29359;BME280;16347;53.232;6.556;2023-04-07T06:33:51;101617.94;;;11.32;65.30
29359;BME280;16347;53.232;6.556;2023-04-07T06:36:21;101618.81;;;11.33;65.79
29359;BME280;16347;53.232;6.556;2023-04-07T06:38:52;101621.97;;;11.38;66.78
29359;BME280;16347;53.232;6.556;2023-04-07T06:41:20;101631.97;;;11.47;66.78
29359;BME280;16347;53.232;6.556;2023-04-07T06:43:49;101617.34;;;11.58;66.24
29359;BME280;16347;53.232;6.556;2023-04-07T06:46:18;101628.06;;;11.59;65.35
29359;BME280;16347;53.232;6.556;2023-04-07T06:48:46;101631.66;;;11.60;65.88
29359;BME280;16347;53.232;6.556;2023-04-07T06:51:14;101628.22;;;11.67;65.23
29359;BME280;16347;53.232;6.556;2023-04-07T06:53:44;101633.50;;;11.69;65.24
29359;BME280;16347;53.232;6.556;2023-04-07T06:56:14;101633.22;;;11.62;65.19
29359;BME280;16347;53.232;6.556;2023-04-07T06:58:42;101634.38;;;11.69;65.27
29359;BME280;16347;53.232;6.556;2023-04-07T07:01:10;101639.56;;;11.72;64.84
29359;BME280;16347;53.232;6.556;2023-04-07T07:03:37;101643.00;;;11.74;64.87
29359;BME280;16347;53.232;6.556;2023-04-07T07:06:05;101639.69;;;11.80;64.69
29359;BME280;16347;53.232;6.556;2023-04-07T07:08:33;101646.13;;;11.79;64.35
29359;BME280;16347;53.232;6.556;2023-04-07T07:11:03;101653.31;;;11.80;64.43
29359;BME280;16347;53.232;6.556;2023-04-07T07:13:31;101651.88;;;11.76;65.12
29359;BME280;16347;53.232;6.556;2023-04-07T07:15:59;101653.34;;;11.71;65.06
29359;BME280;16347;53.232;6.556;2023-04-07T07:18:27;101663.63;;;11.67;65.01
29359;BME280;16347;53.232;6.556;2023-04-07T07:20:57;101666.19;;;11.69;64.89
29359;BME280;16347;53.232;6.556;2023-04-07T07:23:25;101659.19;;;11.66;65.49
29359;BME280;16347;53.232;6.556;2023-04-07T07:25:53;101666.09;;;11.61;65.14
29359;BME280;16347;53.232;6.556;2023-04-07T07:28:24;101673.69;;;11.57;65.33
29359;BME280;16347;53.232;6.556;2023-04-07T07:30:53;101673.09;;;11.63;66.05
29359;BME280;16347;53.232;6.556;2023-04-07T07:33:22;101680.28;;;11.74;66.18
29359;BME280;16347;53.232;6.556;2023-04-07T07:35:50;101676.97;;;11.80;65.93
29359;BME280;16347;53.232;6.556;2023-04-07T07:38:18;101681.13;;;11.84;65.61
29359;BME280;16347;53.232;6.556;2023-04-07T07:40:46;101687.44;;;11.85;65.70
29359;BME280;16347;53.232;6.556;2023-04-07T07:43:15;101687.28;;;11.86;66.00
29359;BME280;16347;53.232;6.556;2023-04-07T07:45:44;101694.28;;;11.89;65.48
29359;BME280;16347;53.232;6.556;2023-04-07T07:48:12;101691.88;;;11.95;65.59
29359;BME280;16347;53.232;6.556;2023-04-07T07:50:43;101692.88;;;11.94;64.90
29359;BME280;16347;53.232;6.556;2023-04-07T07:53:12;101691.88;;;11.95;65.39
29359;BME280;16347;53.232;6.556;2023-04-07T07:55:40;101693.88;;;11.93;65.37
29359;BME280;16347;53.232;6.556;2023-04-07T07:58:08;101699.03;;;11.96;65.52
29359;BME280;16347;53.232;6.556;2023-04-07T08:00:36;101701.75;;;11.96;65.26
29359;BME280;16347;53.232;6.556;2023-04-07T08:03:07;101716.09;;;11.98;64.75
29359;BME280;16347;53.232;6.556;2023-04-07T08:05:35;101708.66;;;11.91;64.91
29359;BME280;16347;53.232;6.556;2023-04-07T08:08:03;101714.22;;;11.89;64.69
29359;BME280;16347;53.232;6.556;2023-04-07T08:10:30;101715.97;;;11.90;64.98
29359;BME280;16347;53.232;6.556;2023-04-07T08:12:58;101723.72;;;11.95;65.34
29359;BME280;16347;53.232;6.556;2023-04-07T08:15:26;101724.72;;;11.94;64.93
29359;BME280;16347;53.232;6.556;2023-04-07T08:17:54;101724.72;;;11.84;64.74
29359;BME280;16347;53.232;6.556;2023-04-07T08:20:24;101727.59;;;11.73;65.25
29359;BME280;16347;53.232;6.556;2023-04-07T08:22:52;101730.59;;;11.70;65.30
29359;BME280;16347;53.232;6.556;2023-04-07T08:25:20;101733.22;;;11.71;65.31
29359;BME280;16347;53.232;6.556;2023-04-07T08:27:48;101734.78;;;11.74;65.63
29359;BME280;16347;53.232;6.556;2023-04-07T08:30:15;101736.91;;;11.80;65.55
29359;BME280;16347;53.232;6.556;2023-04-07T08:32:43;101738.66;;;11.81;65.33
29359;BME280;16347;53.232;6.556;2023-04-07T08:35:11;101738.63;;;11.91;65.63
29359;BME280;16347;53.232;6.556;2023-04-07T08:37:41;101738.59;;;12.00;65.66
29359;BME280;16347;53.232;6.556;2023-04-07T08:40:10;101737.44;;;12.03;65.59
29359;BME280;16347;53.232;6.556;2023-04-07T08:42:40;101740.91;;;12.05;65.24
29359;BME280;16347;53.232;6.556;2023-04-07T08:45:09;101748.50;;;12.11;65.83
29359;BME280;16347;53.232;6.556;2023-04-07T08:47:39;101742.59;;;12.15;65.74
29359;BME280;16347;53.232;6.556;2023-04-07T08:50:09;101753.34;;;12.17;64.91
29359;BME280;16347;53.232;6.556;2023-04-07T08:52:44;101757.66;;;12.19;64.54
29359;BME280;16347;53.232;6.556;2023-04-07T08:55:12;101760.09;;;12.13;64.54
29359;BME280;16347;53.232;6.556;2023-04-07T08:57:41;101756.94;;;12.17;64.95
29359;BME280;16347;53.232;6.556;2023-04-07T09:00:10;101758.66;;;12.18;64.65
29359;BME280;16347;53.232;6.556;2023-04-07T09:02:41;101758.78;;;12.26;64.26
29359;BME280;16347;53.232;6.556;2023-04-07T09:05:11;101757.47;;;12.30;64.32
29359;BME280;16347;53.232;6.556;2023-04-07T09:07:40;101755.75;;;12.29;64.48
29359;BME280;16347;53.232;6.556;2023-04-07T09:10:10;101760.91;;;12.42;64.36
29359;BME280;16347;53.232;6.556;2023-04-07T09:12:38;101765.28;;;12.53;64.35
29359;BME280;16347;53.232;6.556;2023-04-07T09:15:07;101760.44;;;12.47;63.93
29359;BME280;16347;53.232;6.556;2023-04-07T09:17:35;101760.41;;;12.56;63.50
29359;BME280;16347;53.232;6.556;2023-04-07T09:20:03;101764.28;;;12.54;63.17
29359;BME280;16347;53.232;6.556;2023-04-07T09:22:36;101764.16;;;12.55;63.24
29359;BME280;16347;53.232;6.556;2023-04-07T09:25:18;101774.47;;;12.61;63.61
29359;BME280;16347;53.232;6.556;2023-04-07T09:27:56;101768.31;;;12.50;62.78
29359;BME280;16347;53.232;6.556;2023-04-07T09:30:25;101772.19;;;12.57;62.37
29359;BME280;16347;53.232;6.556;2023-04-07T09:32:53;101765.84;;;12.56;62.30
29359;BME280;16347;53.232;6.556;2023-04-07T09:35:22;101770.91;;;12.51;62.36
29359;BME280;16347;53.232;6.556;2023-04-07T09:38:01;101772.75;;;12.60;62.19
29359;BME280;16347;53.232;6.556;2023-04-07T09:40:32;101775.63;;;12.59;62.24
29359;BME280;16347;53.232;6.556;2023-04-07T09:43:00;101779.75;;;12.63;62.15
29359;BME280;16347;53.232;6.556;2023-04-07T09:45:30;101778.03;;;12.71;62.02
29359;BME280;16347;53.232;6.556;2023-04-07T09:48:05;101785.03;;;12.74;62.08
29359;BME280;16347;53.232;6.556;2023-04-07T09:50:37;101785.34;;;12.71;61.57
29359;BME280;16347;53.232;6.556;2023-04-07T09:53:06;101788.22;;;12.69;61.29
29359;BME280;16347;53.232;6.556;2023-04-07T09:55:35;101785.66;;;12.68;61.46
29359;BME280;16347;53.232;6.556;2023-04-07T09:58:04;101786.63;;;12.67;61.63
29359;BME280;16347;53.232;6.556;2023-04-07T10:00:34;101786.03;;;12.73;61.13
29359;BME280;16347;53.232;6.556;2023-04-07T10:03:02;101788.97;;;12.62;60.93
29359;BME280;16347;53.232;6.556;2023-04-07T10:05:31;101794.13;;;12.65;60.67
29359;BME280;16347;53.232;6.556;2023-04-07T10:08:00;101793.09;;;12.66;61.00
29359;BME280;16347;53.232;6.556;2023-04-07T10:10:29;101794.13;;;12.65;61.53
29359;BME280;16347;53.232;6.556;2023-04-07T10:12:59;101799.13;;;12.69;60.95
29359;BME280;16347;53.232;6.556;2023-04-07T10:15:29;101804.44;;;12.71;60.58
29359;BME280;16347;53.232;6.556;2023-04-07T10:17:57;101802.88;;;12.68;59.73
29359;BME280;16347;53.232;6.556;2023-04-07T10:20:27;101802.44;;;12.63;59.95
29359;BME280;16347;53.232;6.556;2023-04-07T10:22:59;101811.38;;;12.65;59.59
29359;BME280;16347;53.232;6.556;2023-04-07T10:25:31;101807.03;;;12.72;60.09
29359;BME280;16347;53.232;6.556;2023-04-07T10:28:05;101809.50;;;12.93;59.84
29359;BME280;16347;53.232;6.556;2023-04-07T10:30:35;101805.97;;;12.83;59.22
29359;BME280;16347;53.232;6.556;2023-04-07T10:33:04;101810.50;;;13.02;59.09
29359;BME280;16347;53.232;6.556;2023-04-07T10:36:02;101816.06;;;13.10;58.30
29359;BME280;16347;53.232;6.556;2023-04-07T10:38:31;101810.75;;;13.08;58.00
29359;BME280;16347;53.232;6.556;2023-04-07T10:40:59;101811.16;;;13.13;58.04
29359;BME280;16347;53.232;6.556;2023-04-07T10:43:46;101814.13;;;13.29;57.45
29359;BME280;16347;53.232;6.556;2023-04-07T10:46:14;101815.56;;;13.24;57.89
29359;BME280;16347;53.232;6.556;2023-04-07T10:49:09;101824.97;;;13.39;57.84
29359;BME280;16347;53.232;6.556;2023-04-07T10:51:37;101816.94;;;13.38;57.30
29359;BME280;16347;53.232;6.556;2023-04-07T10:54:14;101833.50;;;13.36;56.58
29359;BME280;16347;53.232;6.556;2023-04-07T10:57:05;101831.13;;;13.41;56.17
29359;BME280;16347;53.232;6.556;2023-04-07T10:59:38;101826.84;;;13.39;56.49
29359;BME280;16347;53.232;6.556;2023-04-07T11:02:31;101827.66;;;13.49;56.87
29359;BME280;16347;53.232;6.556;2023-04-07T11:05:00;101827.50;;;13.68;56.06
29359;BME280;16347;53.232;6.556;2023-04-07T11:07:52;101829.13;;;13.61;56.63
29359;BME280;16347;53.232;6.556;2023-04-07T11:10:23;101834.59;;;13.61;56.26
29359;BME280;16347;53.232;6.556;2023-04-07T11:13:02;101829.88;;;13.63;55.79
29359;BME280;16347;53.232;6.556;2023-04-07T11:15:33;101832.72;;;13.61;56.00
29359;BME280;16347;53.232;6.556;2023-04-07T11:18:12;101830.56;;;13.65;55.89
29359;BME280;16347;53.232;6.556;2023-04-07T11:20:44;101827.38;;;13.69;55.99
29359;BME280;16347;53.232;6.556;2023-04-07T11:23:14;101830.03;;;13.79;55.82
29359;BME280;16347;53.232;6.556;2023-04-07T11:25:44;101827.75;;;13.74;55.60
29359;BME280;16347;53.232;6.556;2023-04-07T11:28:13;101828.72;;;13.83;54.77
29359;BME280;16347;53.232;6.556;2023-04-07T11:30:47;101837.81;;;13.92;54.85
29359;BME280;16347;53.232;6.556;2023-04-07T11:33:16;101832.22;;;13.93;54.17
29359;BME280;16347;53.232;6.556;2023-04-07T11:35:49;101833.22;;;13.92;54.08
29359;BME280;16347;53.232;6.556;2023-04-07T11:38:18;101839.38;;;13.94;53.42
29359;BME280;16347;53.232;6.556;2023-04-07T11:40:46;101841.13;;;13.95;52.95
29359;BME280;16347;53.232;6.556;2023-04-07T11:43:16;101833.69;;;13.87;52.63
29359;BME280;16347;53.232;6.556;2023-04-07T11:45:46;101837.91;;;13.82;52.78
29359;BME280;16347;53.232;6.556;2023-04-07T11:48:30;101844.78;;;13.68;52.34
29359;BME280;16347;53.232;6.556;2023-04-07T11:50:59;101846.88;;;13.74;52.97
29359;BME280;16347;53.232;6.556;2023-04-07T11:53:28;101848.53;;;13.85;53.49
29359;BME280;16347;53.232;6.556;2023-04-07T11:56:00;101850.63;;;13.91;52.68
29359;BME280;16347;53.232;6.556;2023-04-07T11:58:29;101853.38;;;13.91;51.91
29359;BME280;16347;53.232;6.556;2023-04-07T12:01:01;101860.03;;;13.88;51.93
29359;BME280;16347;53.232;6.556;2023-04-07T12:03:33;101864.63;;;14.06;51.67
29359;BME280;16347;53.232;6.556;2023-04-07T12:06:03;101850.88;;;14.15;52.86
29359;BME280;16347;53.232;6.556;2023-04-07T12:08:42;101856.03;;;14.36;52.96
29359;BME280;16347;53.232;6.556;2023-04-07T12:11:10;101852.88;;;14.49;52.93
29359;BME280;16347;53.232;6.556;2023-04-07T12:13:38;101851.88;;;14.50;50.68
29359;BME280;16347;53.232;6.556;2023-04-07T12:16:08;101868.13;;;14.51;49.90
29359;BME280;16347;53.232;6.556;2023-04-07T12:18:36;101854.97;;;14.55;50.35
29359;BME280;16347;53.232;6.556;2023-04-07T12:21:04;101864.28;;;14.62;50.18
29359;BME280;16347;53.232;6.556;2023-04-07T12:23:32;101862.97;;;14.48;49.76
29359;BME280;16347;53.232;6.556;2023-04-07T12:26:00;101864.13;;;14.63;51.86
29359;BME280;16347;53.232;6.556;2023-04-07T12:28:29;101867.75;;;14.46;49.84
29359;BME280;16347;53.232;6.556;2023-04-07T12:30:57;101859.53;;;14.46;50.31
29359;BME280;16347;53.232;6.556;2023-04-07T12:33:26;101864.84;;;14.48;50.74
29359;BME280;16347;53.232;6.556;2023-04-07T12:35:56;101868.50;;;14.56;51.49
29359;BME280;16347;53.232;6.556;2023-04-07T12:38:24;101861.75;;;14.43;49.31
29359;BME280;16347;53.232;6.556;2023-04-07T12:40:52;101871.28;;;14.38;49.07
29359;BME280;16347;53.232;6.556;2023-04-07T12:43:20;101872.38;;;14.46;50.18
29359;BME280;16347;53.232;6.556;2023-04-07T12:45:48;101865.69;;;14.48;50.02
29359;BME280;16347;53.232;6.556;2023-04-07T12:48:16;101879.16;;;14.42;49.52
29359;BME280;16347;53.232;6.556;2023-04-07T12:50:45;101881.25;;;14.48;49.71
29359;BME280;16347;53.232;6.556;2023-04-07T12:53:13;101880.94;;;14.51;50.05
29359;BME280;16347;53.232;6.556;2023-04-07T12:55:41;101881.47;;;14.54;50.16
29359;BME280;16347;53.232;6.556;2023-04-07T12:58:09;101873.66;;;14.59;50.48
29359;BME280;16347;53.232;6.556;2023-04-07T13:00:37;101872.34;;;14.63;50.26
29359;BME280;16347;53.232;6.556;2023-04-07T13:03:07;101873.09;;;14.73;50.25
29359;BME280;16347;53.232;6.556;2023-04-07T13:05:35;101865.88;;;14.98;49.84
29359;BME280;16347;53.232;6.556;2023-04-07T13:08:05;101869.94;;;15.20;49.17